Terminal Aerodrome Forecast
Issued by NWS

Home | Current Version | Previous Version | Graphics & Text | Print | Product List | Glossary On
Versions: 1 2 3 4 5 6 7 8 9 10 11 12 13 14 15 16 17 18 19
000
FTUS43 KGRB 171700
TAFATW
TAF
KATW 171722Z 1718/1818 23010KT P6SM BKN030
      TEMPO 1718/1719 SCT030
     FM172100 26010KT P6SM OVC015
     FM180300 31006KT P6SM SCT025 SCT250
     FM181200 34006KT P6SM SCT120 SCT250
     FM181600 34007KT P6SM BKN120 BKN250=

USA.gov is the U.S. government's official web portal to all federal, state and local government web resources and services.